sensor_id;sensor_type;location;lat;lon;timestamp;P1;durP1;ratioP1;P2;durP2;ratioP2
45540;SDS011;31265;49.680;8.608;2023-06-14T00:01:17;3.50;;;1.67;;
45540;SDS011;31265;49.680;8.608;2023-06-14T00:03:49;3.25;;;1.55;;
45540;SDS011;31265;49.680;8.608;2023-06-14T00:06:19;4.70;;;1.98;;
45540;SDS011;31265;49.680;8.608;2023-06-14T00:08:51;3.55;;;1.75;;
45540;SDS011;31265;49.680;8.608;2023-06-14T00:11:23;4.03;;;1.70;;
45540;SDS011;31265;49.680;8.608;2023-06-14T00:13:53;4.18;;;1.75;;
45540;SDS011;31265;49.680;8.608;2023-06-14T00:16:27;4.70;;;1.63;;
45540;SDS011;31265;49.680;8.608;2023-06-14T00:18:55;3.78;;;1.80;;
45540;SDS011;31265;49.680;8.608;2023-06-14T00:21:24;3.63;;;1.80;;
45540;SDS011;31265;49.680;8.608;2023-06-14T00:23:57;3.65;;;1.98;;
45540;SDS011;31265;49.680;8.608;2023-06-14T00:26:26;2.85;;;1.50;;
45540;SDS011;31265;49.680;8.608;2023-06-14T00:28:55;3.03;;;1.75;;
45540;SDS011;31265;49.680;8.608;2023-06-14T00:31:27;4.13;;;1.98;;
45540;SDS011;31265;49.680;8.608;2023-06-14T00:33:55;3.92;;;1.83;;
45540;SDS011;31265;49.680;8.608;2023-06-14T00:36:23;3.92;;;2.15;;
45540;SDS011;31265;49.680;8.608;2023-06-14T00:38:52;7.28;;;1.58;;
45540;SDS011;31265;49.680;8.608;2023-06-14T00:41:21;4.88;;;1.88;;
45540;SDS011;31265;49.680;8.608;2023-06-14T00:43:50;4.00;;;1.58;;
45540;SDS011;31265;49.680;8.608;2023-06-14T00:46:21;5.82;;;2.10;;
45540;SDS011;31265;49.680;8.608;2023-06-14T00:48:51;3.70;;;2.25;;
45540;SDS011;31265;49.680;8.608;2023-06-14T00:51:20;3.15;;;1.33;;
45540;SDS011;31265;49.680;8.608;2023-06-14T00:53:48;4.47;;;1.92;;
45540;SDS011;31265;49.680;8.608;2023-06-14T00:56:17;3.10;;;1.42;;
45540;SDS011;31265;49.680;8.608;2023-06-14T00:58:50;3.70;;;1.85;;
45540;SDS011;31265;49.680;8.608;2023-06-14T01:01:18;3.17;;;1.88;;
45540;SDS011;31265;49.680;8.608;2023-06-14T01:03:47;3.13;;;1.58;;
45540;SDS011;31265;49.680;8.608;2023-06-14T01:06:19;10.05;;;2.00;;
45540;SDS011;31265;49.680;8.608;2023-06-14T01:08:59;7.07;;;1.70;;
45540;SDS011;31265;49.680;8.608;2023-06-14T01:11:37;3.37;;;1.53;;
45540;SDS011;31265;49.680;8.608;2023-06-14T01:14:15;3.13;;;1.50;;
45540;SDS011;31265;49.680;8.608;2023-06-14T01:16:45;3.38;;;1.63;;
45540;SDS011;31265;49.680;8.608;2023-06-14T01:19:14;7.78;;;1.92;;
45540;SDS011;31265;49.680;8.608;2023-06-14T01:21:45;9.07;;;1.88;;
45540;SDS011;31265;49.680;8.608;2023-06-14T01:24:19;3.83;;;1.60;;
45540;SDS011;31265;49.680;8.608;2023-06-14T01:26:53;3.25;;;1.33;;
45540;SDS011;31265;49.680;8.608;2023-06-14T01:29:26;5.00;;;1.70;;
45540;SDS011;31265;49.680;8.608;2023-06-14T01:31:59;8.57;;;2.13;;
45540;SDS011;31265;49.680;8.608;2023-06-14T01:34:30;4.05;;;2.15;;
45540;SDS011;31265;49.680;8.608;2023-06-14T01:36:59;5.70;;;1.92;;
45540;SDS011;31265;49.680;8.608;2023-06-14T01:39:32;4.63;;;1.77;;
45540;SDS011;31265;49.680;8.608;2023-06-14T01:42:05;4.88;;;1.73;;
45540;SDS011;31265;49.680;8.608;2023-06-14T01:44:36;3.35;;;1.55;;
45540;SDS011;31265;49.680;8.608;2023-06-14T01:47:06;3.78;;;1.85;;
45540;SDS011;31265;49.680;8.608;2023-06-14T01:49:38;3.35;;;1.65;;
45540;SDS011;31265;49.680;8.608;2023-06-14T01:52:08;3.47;;;1.67;;
45540;SDS011;31265;49.680;8.608;2023-06-14T01:54:38;5.90;;;1.80;;
45540;SDS011;31265;49.680;8.608;2023-06-14T01:57:09;2.65;;;1.40;;
45540;SDS011;31265;49.680;8.608;2023-06-14T01:59:38;3.42;;;1.88;;
45540;SDS011;31265;49.680;8.608;2023-06-14T02:02:06;3.58;;;1.92;;
45540;SDS011;31265;49.680;8.608;2023-06-14T02:04:37;2.47;;;1.38;;
45540;SDS011;31265;49.680;8.608;2023-06-14T02:07:05;4.60;;;1.83;;
45540;SDS011;31265;49.680;8.608;2023-06-14T02:09:34;2.95;;;1.50;;
45540;SDS011;31265;49.680;8.608;2023-06-14T02:12:05;4.63;;;2.37;;
45540;SDS011;31265;49.680;8.608;2023-06-14T02:14:34;7.47;;;2.30;;
45540;SDS011;31265;49.680;8.608;2023-06-14T02:17:02;3.40;;;1.75;;
45540;SDS011;31265;49.680;8.608;2023-06-14T02:19:31;5.20;;;1.90;;
45540;SDS011;31265;49.680;8.608;2023-06-14T02:22:03;5.97;;;2.30;;
45540;SDS011;31265;49.680;8.608;2023-06-14T02:24:34;4.95;;;1.27;;
45540;SDS011;31265;49.680;8.608;2023-06-14T02:27:02;3.03;;;1.63;;
45540;SDS011;31265;49.680;8.608;2023-06-14T02:29:34;4.10;;;2.05;;
45540;SDS011;31265;49.680;8.608;2023-06-14T02:32:03;5.38;;;1.73;;
45540;SDS011;31265;49.680;8.608;2023-06-14T02:34:36;8.88;;;2.40;;
45540;SDS011;31265;49.680;8.608;2023-06-14T02:37:14;4.40;;;1.73;;
45540;SDS011;31265;49.680;8.608;2023-06-14T02:39:45;4.80;;;2.42;;
45540;SDS011;31265;49.680;8.608;2023-06-14T02:42:16;4.85;;;2.08;;
45540;SDS011;31265;49.680;8.608;2023-06-14T02:44:45;4.57;;;1.95;;
45540;SDS011;31265;49.680;8.608;2023-06-14T02:47:18;3.80;;;1.88;;
45540;SDS011;31265;49.680;8.608;2023-06-14T02:49:47;3.25;;;1.83;;
45540;SDS011;31265;49.680;8.608;2023-06-14T02:52:15;3.55;;;1.90;;
45540;SDS011;31265;49.680;8.608;2023-06-14T02:54:43;4.72;;;1.85;;
45540;SDS011;31265;49.680;8.608;2023-06-14T02:57:14;3.70;;;1.90;;
45540;SDS011;31265;49.680;8.608;2023-06-14T02:59:47;5.95;;;1.75;;
45540;SDS011;31265;49.680;8.608;2023-06-14T03:02:16;9.05;;;2.95;;
45540;SDS011;31265;49.680;8.608;2023-06-14T03:04:44;5.03;;;1.90;;
45540;SDS011;31265;49.680;8.608;2023-06-14T03:07:16;2.90;;;1.48;;
45540;SDS011;31265;49.680;8.608;2023-06-14T03:09:50;6.00;;;1.77;;
45540;SDS011;31265;49.680;8.608;2023-06-14T03:12:18;4.82;;;2.28;;
45540;SDS011;31265;49.680;8.608;2023-06-14T03:14:53;2.90;;;1.60;;
45540;SDS011;31265;49.680;8.608;2023-06-14T03:17:26;5.07;;;2.17;;
45540;SDS011;31265;49.680;8.608;2023-06-14T03:20:08;2.55;;;1.60;;
45540;SDS011;31265;49.680;8.608;2023-06-14T03:22:36;3.60;;;2.20;;
45540;SDS011;31265;49.680;8.608;2023-06-14T03:25:07;3.75;;;1.70;;
45540;SDS011;31265;49.680;8.608;2023-06-14T03:27:38;4.38;;;1.90;;
45540;SDS011;31265;49.680;8.608;2023-06-14T03:30:11;6.43;;;1.85;;
45540;SDS011;31265;49.680;8.608;2023-06-14T03:32:42;5.15;;;2.00;;
45540;SDS011;31265;49.680;8.608;2023-06-14T03:35:14;4.70;;;1.92;;
45540;SDS011;31265;49.680;8.608;2023-06-14T03:37:47;5.00;;;1.92;;
45540;SDS011;31265;49.680;8.608;2023-06-14T03:40:17;3.42;;;1.65;;
45540;SDS011;31265;49.680;8.608;2023-06-14T03:42:50;6.32;;;2.20;;
45540;SDS011;31265;49.680;8.608;2023-06-14T03:45:22;3.85;;;1.90;;
45540;SDS011;31265;49.680;8.608;2023-06-14T03:47:52;8.07;;;1.90;;
45540;SDS011;31265;49.680;8.608;2023-06-14T03:50:22;2.92;;;1.77;;
45540;SDS011;31265;49.680;8.608;2023-06-14T03:52:51;5.97;;;2.45;;
45540;SDS011;31265;49.680;8.608;2023-06-14T03:55:20;4.13;;;2.13;;
45540;SDS011;31265;49.680;8.608;2023-06-14T03:58:11;5.18;;;2.47;;
45540;SDS011;31265;49.680;8.608;2023-06-14T04:00:41;5.25;;;2.35;;
45540;SDS011;31265;49.680;8.608;2023-06-14T04:03:10;3.58;;;1.60;;
45540;SDS011;31265;49.680;8.608;2023-06-14T04:05:40;4.10;;;2.17;;
45540;SDS011;31265;49.680;8.608;2023-06-14T04:08:09;3.97;;;1.90;;
45540;SDS011;31265;49.680;8.608;2023-06-14T04:10:41;3.90;;;1.77;;
45540;SDS011;31265;49.680;8.608;2023-06-14T04:13:09;3.90;;;2.17;;
45540;SDS011;31265;49.680;8.608;2023-06-14T04:15:41;5.80;;;2.10;;
45540;SDS011;31265;49.680;8.608;2023-06-14T04:18:13;5.45;;;1.65;;
45540;SDS011;31265;49.680;8.608;2023-06-14T04:20:41;4.10;;;1.92;;
45540;SDS011;31265;49.680;8.608;2023-06-14T04:23:11;3.58;;;1.70;;
45540;SDS011;31265;49.680;8.608;2023-06-14T04:25:41;6.03;;;1.80;;
45540;SDS011;31265;49.680;8.608;2023-06-14T04:28:12;4.68;;;1.90;;
45540;SDS011;31265;49.680;8.608;2023-06-14T04:30:42;3.88;;;1.65;;
45540;SDS011;31265;49.680;8.608;2023-06-14T04:33:14;5.45;;;1.95;;
45540;SDS011;31265;49.680;8.608;2023-06-14T04:35:45;6.93;;;2.28;;
45540;SDS011;31265;49.680;8.608;2023-06-14T04:38:15;6.05;;;2.05;;
45540;SDS011;31265;49.680;8.608;2023-06-14T04:40:46;3.92;;;1.73;;
45540;SDS011;31265;49.680;8.608;2023-06-14T04:43:17;5.05;;;1.88;;
45540;SDS011;31265;49.680;8.608;2023-06-14T04:45:54;8.13;;;2.00;;
45540;SDS011;31265;49.680;8.608;2023-06-14T04:48:24;4.43;;;1.60;;
45540;SDS011;31265;49.680;8.608;2023-06-14T04:50:54;4.97;;;1.90;;
45540;SDS011;31265;49.680;8.608;2023-06-14T04:53:22;10.52;;;3.25;;
45540;SDS011;31265;49.680;8.608;2023-06-14T04:55:55;11.32;;;1.60;;
45540;SDS011;31265;49.680;8.608;2023-06-14T04:58:25;2.35;;;1.45;;
45540;SDS011;31265;49.680;8.608;2023-06-14T05:00:55;4.93;;;2.17;;
45540;SDS011;31265;49.680;8.608;2023-06-14T05:03:26;3.90;;;1.70;;
45540;SDS011;31265;49.680;8.608;2023-06-14T05:05:54;7.22;;;2.20;;
45540;SDS011;31265;49.680;8.608;2023-06-14T05:08:23;4.25;;;1.70;;
45540;SDS011;31265;49.680;8.608;2023-06-14T05:10:52;4.25;;;1.55;;
45540;SDS011;31265;49.680;8.608;2023-06-14T05:13:21;5.87;;;2.00;;
45540;SDS011;31265;49.680;8.608;2023-06-14T05:15:49;6.72;;;1.77;;
45540;SDS011;31265;49.680;8.608;2023-06-14T05:18:20;9.33;;;2.30;;
45540;SDS011;31265;49.680;8.608;2023-06-14T05:20:48;4.38;;;1.88;;
45540;SDS011;31265;49.680;8.608;2023-06-14T05:23:17;5.60;;;1.90;;
45540;SDS011;31265;49.680;8.608;2023-06-14T05:25:45;5.00;;;2.20;;
45540;SDS011;31265;49.680;8.608;2023-06-14T05:28:14;4.78;;;2.45;;
45540;SDS011;31265;49.680;8.608;2023-06-14T05:30:43;4.28;;;2.15;;
45540;SDS011;31265;49.680;8.608;2023-06-14T05:33:11;3.28;;;2.13;;
45540;SDS011;31265;49.680;8.608;2023-06-14T05:35:42;3.88;;;1.85;;
45540;SDS011;31265;49.680;8.608;2023-06-14T05:38:10;6.47;;;2.00;;
45540;SDS011;31265;49.680;8.608;2023-06-14T05:40:39;3.97;;;1.98;;
45540;SDS011;31265;49.680;8.608;2023-06-14T05:43:07;8.63;;;1.65;;
45540;SDS011;31265;49.680;8.608;2023-06-14T05:45:39;3.45;;;1.70;;
45540;SDS011;31265;49.680;8.608;2023-06-14T05:48:09;4.43;;;2.17;;
45540;SDS011;31265;49.680;8.608;2023-06-14T05:53:25;4.75;;;2.25;;
45540;SDS011;31265;49.680;8.608;2023-06-14T05:55:53;7.88;;;2.17;;
45540;SDS011;31265;49.680;8.608;2023-06-14T05:58:22;5.80;;;2.08;;
45540;SDS011;31265;49.680;8.608;2023-06-14T06:00:50;4.60;;;2.08;;
45540;SDS011;31265;49.680;8.608;2023-06-14T06:03:20;4.78;;;1.92;;
45540;SDS011;31265;49.680;8.608;2023-06-14T06:05:50;3.65;;;1.73;;
45540;SDS011;31265;49.680;8.608;2023-06-14T06:08:20;3.53;;;1.90;;
45540;SDS011;31265;49.680;8.608;2023-06-14T06:10:48;4.05;;;1.83;;
45540;SDS011;31265;49.680;8.608;2023-06-14T06:13:17;6.83;;;1.63;;
45540;SDS011;31265;49.680;8.608;2023-06-14T06:15:46;3.25;;;1.75;;
45540;SDS011;31265;49.680;8.608;2023-06-14T06:18:14;4.53;;;2.20;;
45540;SDS011;31265;49.680;8.608;2023-06-14T06:20:43;3.38;;;1.52;;
45540;SDS011;31265;49.680;8.608;2023-06-14T06:23:13;5.53;;;2.20;;
45540;SDS011;31265;49.680;8.608;2023-06-14T06:25:42;3.15;;;1.77;;
45540;SDS011;31265;49.680;8.608;2023-06-14T06:30:39;4.45;;;1.75;;
45540;SDS011;31265;49.680;8.608;2023-06-14T06:33:07;5.90;;;1.67;;
45540;SDS011;31265;49.680;8.608;2023-06-14T06:35:35;4.18;;;1.90;;
45540;SDS011;31265;49.680;8.608;2023-06-14T06:38:04;3.65;;;1.80;;
45540;SDS011;31265;49.680;8.608;2023-06-14T06:40:32;4.03;;;2.20;;
45540;SDS011;31265;49.680;8.608;2023-06-14T06:43:02;3.45;;;1.98;;
45540;SDS011;31265;49.680;8.608;2023-06-14T06:45:39;4.15;;;1.80;;
45540;SDS011;31265;49.680;8.608;2023-06-14T06:48:07;5.45;;;2.42;;
45540;SDS011;31265;49.680;8.608;2023-06-14T06:53:05;6.20;;;1.60;;
45540;SDS011;31265;49.680;8.608;2023-06-14T06:55:33;6.07;;;2.25;;
45540;SDS011;31265;49.680;8.608;2023-06-14T06:58:03;8.73;;;1.60;;
45540;SDS011;31265;49.680;8.608;2023-06-14T07:00:32;3.45;;;1.67;;
45540;SDS011;31265;49.680;8.608;2023-06-14T07:03:00;6.38;;;2.10;;
45540;SDS011;31265;49.680;8.608;2023-06-14T07:05:31;4.60;;;1.77;;
45540;SDS011;31265;49.680;8.608;2023-06-14T07:07:59;5.28;;;1.55;;
45540;SDS011;31265;49.680;8.608;2023-06-14T07:10:28;5.05;;;1.50;;
45540;SDS011;31265;49.680;8.608;2023-06-14T07:12:56;3.70;;;1.85;;
45540;SDS011;31265;49.680;8.608;2023-06-14T07:15:26;3.97;;;1.70;;
45540;SDS011;31265;49.680;8.608;2023-06-14T07:17:54;8.07;;;2.53;;
45540;SDS011;31265;49.680;8.608;2023-06-14T07:20:26;3.25;;;1.77;;
45540;SDS011;31265;49.680;8.608;2023-06-14T07:22:55;3.03;;;1.67;;
45540;SDS011;31265;49.680;8.608;2023-06-14T07:25:23;3.00;;;1.50;;
45540;SDS011;31265;49.680;8.608;2023-06-14T07:27:52;3.83;;;1.83;;
45540;SDS011;31265;49.680;8.608;2023-06-14T07:30:20;6.95;;;1.88;;
45540;SDS011;31265;49.680;8.608;2023-06-14T07:32:54;6.60;;;2.13;;
45540;SDS011;31265;49.680;8.608;2023-06-14T07:35:22;5.43;;;2.08;;
45540;SDS011;31265;49.680;8.608;2023-06-14T07:37:50;3.55;;;1.80;;
45540;SDS011;31265;49.680;8.608;2023-06-14T07:40:19;3.63;;;2.20;;
45540;SDS011;31265;49.680;8.608;2023-06-14T07:42:47;4.32;;;2.22;;
45540;SDS011;31265;49.680;8.608;2023-06-14T07:45:17;3.67;;;1.77;;
45540;SDS011;31265;49.680;8.608;2023-06-14T07:47:46;3.78;;;1.95;;
45540;SDS011;31265;49.680;8.608;2023-06-14T07:50:16;4.57;;;1.92;;
45540;SDS011;31265;49.680;8.608;2023-06-14T07:52:45;4.93;;;1.88;;
45540;SDS011;31265;49.680;8.608;2023-06-14T07:55:13;3.58;;;1.88;;
45540;SDS011;31265;49.680;8.608;2023-06-14T08:00:12;3.55;;;1.77;;
45540;SDS011;31265;49.680;8.608;2023-06-14T08:02:42;2.55;;;1.40;;
45540;SDS011;31265;49.680;8.608;2023-06-14T08:05:12;6.63;;;1.77;;
45540;SDS011;31265;49.680;8.608;2023-06-14T08:07:43;3.53;;;2.00;;
45540;SDS011;31265;49.680;8.608;2023-06-14T08:12:40;2.73;;;1.53;;
45540;SDS011;31265;49.680;8.608;2023-06-14T08:15:08;4.65;;;1.73;;
45540;SDS011;31265;49.680;8.608;2023-06-14T08:17:42;3.60;;;2.00;;
45540;SDS011;31265;49.680;8.608;2023-06-14T08:20:11;5.60;;;2.00;;
45540;SDS011;31265;49.680;8.608;2023-06-14T08:25:13;3.95;;;1.98;;
45540;SDS011;31265;49.680;8.608;2023-06-14T08:27:42;2.72;;;1.40;;
45540;SDS011;31265;49.680;8.608;2023-06-14T08:30:11;3.90;;;2.05;;
45540;SDS011;31265;49.680;8.608;2023-06-14T08:32:41;3.58;;;1.55;;
45540;SDS011;31265;49.680;8.608;2023-06-14T08:35:09;5.65;;;1.38;;
45540;SDS011;31265;49.680;8.608;2023-06-14T08:37:39;2.78;;;1.35;;
45540;SDS011;31265;49.680;8.608;2023-06-14T08:40:18;3.53;;;1.50;;
45540;SDS011;31265;49.680;8.608;2023-06-14T08:42:52;2.58;;;1.65;;
45540;SDS011;31265;49.680;8.608;2023-06-14T08:45:21;2.28;;;1.52;;
45540;SDS011;31265;49.680;8.608;2023-06-14T08:47:55;4.82;;;1.27;;
45540;SDS011;31265;49.680;8.608;2023-06-14T08:50:27;2.35;;;1.42;;
45540;SDS011;31265;49.680;8.608;2023-06-14T08:53:00;2.40;;;1.30;;
45540;SDS011;31265;49.680;8.608;2023-06-14T08:55:32;2.08;;;1.00;;
45540;SDS011;31265;49.680;8.608;2023-06-14T08:58:04;2.17;;;1.20;;
45540;SDS011;31265;49.680;8.608;2023-06-14T09:00:32;4.97;;;1.43;;
45540;SDS011;31265;49.680;8.608;2023-06-14T09:03:01;3.13;;;1.50;;
45540;SDS011;31265;49.680;8.608;2023-06-14T09:05:30;2.33;;;1.43;;
45540;SDS011;31265;49.680;8.608;2023-06-14T09:08:01;3.40;;;1.10;;
45540;SDS011;31265;49.680;8.608;2023-06-14T09:10:34;2.60;;;1.27;;
45540;SDS011;31265;49.680;8.608;2023-06-14T09:13:05;3.72;;;1.85;;
45540;SDS011;31265;49.680;8.608;2023-06-14T09:18:02;4.65;;;1.83;;
45540;SDS011;31265;49.680;8.608;2023-06-14T09:20:33;2.60;;;1.23;;
45540;SDS011;31265;49.680;8.608;2023-06-14T09:23:01;2.20;;;1.10;;
45540;SDS011;31265;49.680;8.608;2023-06-14T09:25:32;2.22;;;1.10;;
45540;SDS011;31265;49.680;8.608;2023-06-14T09:28:09;2.88;;;1.00;;
45540;SDS011;31265;49.680;8.608;2023-06-14T09:30:38;3.30;;;1.02;;
45540;SDS011;31265;49.680;8.608;2023-06-14T09:33:06;2.42;;;1.45;;
45540;SDS011;31265;49.680;8.608;2023-06-14T09:35:35;2.13;;;1.20;;
45540;SDS011;31265;49.680;8.608;2023-06-14T09:38:04;3.30;;;1.40;;
45540;SDS011;31265;49.680;8.608;2023-06-14T09:40:35;2.30;;;1.10;;
45540;SDS011;31265;49.680;8.608;2023-06-14T09:43:05;2.78;;;1.10;;
45540;SDS011;31265;49.680;8.608;2023-06-14T09:45:35;2.17;;;1.10;;
45540;SDS011;31265;49.680;8.608;2023-06-14T09:48:06;3.15;;;1.30;;
45540;SDS011;31265;49.680;8.608;2023-06-14T09:53:05;2.63;;;1.13;;
45540;SDS011;31265;49.680;8.608;2023-06-14T09:55:37;2.55;;;0.93;;
45540;SDS011;31265;49.680;8.608;2023-06-14T09:58:06;2.10;;;0.95;;
45540;SDS011;31265;49.680;8.608;2023-06-14T10:00:37;1.80;;;0.90;;
45540;SDS011;31265;49.680;8.608;2023-06-14T10:03:11;3.25;;;1.00;;
45540;SDS011;31265;49.680;8.608;2023-06-14T10:05:43;2.50;;;0.90;;
45540;SDS011;31265;49.680;8.608;2023-06-14T10:08:16;2.75;;;1.20;;
45540;SDS011;31265;49.680;8.608;2023-06-14T10:10:48;2.17;;;1.00;;
45540;SDS011;31265;49.680;8.608;2023-06-14T10:13:17;2.63;;;1.30;;
45540;SDS011;31265;49.680;8.608;2023-06-14T10:15:49;2.35;;;1.20;;
45540;SDS011;31265;49.680;8.608;2023-06-14T10:18:25;2.15;;;1.15;;
45540;SDS011;31265;49.680;8.608;2023-06-14T10:21:03;8.15;;;1.40;;
45540;SDS011;31265;49.680;8.608;2023-06-14T10:23:37;2.45;;;0.95;;
45540;SDS011;31265;49.680;8.608;2023-06-14T10:26:16;3.17;;;1.10;;
45540;SDS011;31265;49.680;8.608;2023-06-14T10:28:55;3.38;;;1.35;;
45540;SDS011;31265;49.680;8.608;2023-06-14T10:31:41;3.20;;;1.30;;
45540;SDS011;31265;49.680;8.608;2023-06-14T10:34:11;5.32;;;1.52;;
45540;SDS011;31265;49.680;8.608;2023-06-14T10:36:41;1.92;;;1.00;;
45540;SDS011;31265;49.680;8.608;2023-06-14T10:39:12;2.17;;;1.33;;
45540;SDS011;31265;49.680;8.608;2023-06-14T10:41:51;3.63;;;1.45;;
45540;SDS011;31265;49.680;8.608;2023-06-14T10:47:26;3.13;;;1.30;;
45540;SDS011;31265;49.680;8.608;2023-06-14T10:49:56;2.47;;;1.05;;
45540;SDS011;31265;49.680;8.608;2023-06-14T10:52:32;3.25;;;1.40;;
45540;SDS011;31265;49.680;8.608;2023-06-14T10:55:03;4.38;;;1.70;;
45540;SDS011;31265;49.680;8.608;2023-06-14T10:57:52;4.10;;;1.45;;
45540;SDS011;31265;49.680;8.608;2023-06-14T11:00:24;3.53;;;1.35;;
45540;SDS011;31265;49.680;8.608;2023-06-14T11:06:12;3.90;;;1.23;;
45540;SDS011;31265;49.680;8.608;2023-06-14T11:11:48;2.80;;;1.40;;
45540;SDS011;31265;49.680;8.608;2023-06-14T11:14:20;1.85;;;1.10;;
45540;SDS011;31265;49.680;8.608;2023-06-14T11:16:49;2.50;;;1.30;;
45540;SDS011;31265;49.680;8.608;2023-06-14T11:19:18;5.85;;;2.25;;
45540;SDS011;31265;49.680;8.608;2023-06-14T11:21:47;8.18;;;1.17;;
45540;SDS011;31265;49.680;8.608;2023-06-14T11:24:18;1.92;;;1.02;;
45540;SDS011;31265;49.680;8.608;2023-06-14T11:26:47;2.25;;;1.20;;
45540;SDS011;31265;49.680;8.608;2023-06-14T11:29:16;2.40;;;0.90;;
45540;SDS011;31265;49.680;8.608;2023-06-14T11:31:46;2.67;;;1.27;;
45540;SDS011;31265;49.680;8.608;2023-06-14T11:34:14;2.60;;;1.27;;
45540;SDS011;31265;49.680;8.608;2023-06-14T11:36:43;1.55;;;0.80;;
45540;SDS011;31265;49.680;8.608;2023-06-14T11:39:14;2.78;;;1.40;;
45540;SDS011;31265;49.680;8.608;2023-06-14T11:41:43;4.65;;;1.40;;
45540;SDS011;31265;49.680;8.608;2023-06-14T11:44:13;2.83;;;1.30;;
45540;SDS011;31265;49.680;8.608;2023-06-14T11:46:41;2.25;;;1.08;;
45540;SDS011;31265;49.680;8.608;2023-06-14T11:49:11;3.87;;;1.30;;
45540;SDS011;31265;49.680;8.608;2023-06-14T11:51:39;2.40;;;1.20;;
45540;SDS011;31265;49.680;8.608;2023-06-14T11:54:10;2.60;;;1.27;;
45540;SDS011;31265;49.680;8.608;2023-06-14T11:56:39;3.20;;;1.00;;
45540;SDS011;31265;49.680;8.608;2023-06-14T11:59:07;3.50;;;1.02;;
45540;SDS011;31265;49.680;8.608;2023-06-14T12:01:36;1.58;;;0.73;;
45540;SDS011;31265;49.680;8.608;2023-06-14T12:04:06;3.53;;;1.15;;
45540;SDS011;31265;49.680;8.608;2023-06-14T12:06:36;2.08;;;1.13;;
45540;SDS011;31265;49.680;8.608;2023-06-14T12:09:07;2.47;;;0.98;;
45540;SDS011;31265;49.680;8.608;2023-06-14T12:11:40;2.70;;;1.48;;
45540;SDS011;31265;49.680;8.608;2023-06-14T12:14:09;2.27;;;1.13;;
45540;SDS011;31265;49.680;8.608;2023-06-14T12:16:38;2.25;;;1.08;;
45540;SDS011;31265;49.680;8.608;2023-06-14T12:19:09;3.38;;;1.40;;
45540;SDS011;31265;49.680;8.608;2023-06-14T12:21:42;2.60;;;1.20;;
45540;SDS011;31265;49.680;8.608;2023-06-14T12:24:13;2.72;;;1.30;;
45540;SDS011;31265;49.680;8.608;2023-06-14T12:26:42;2.30;;;1.05;;
45540;SDS011;31265;49.680;8.608;2023-06-14T12:29:12;3.53;;;1.35;;
45540;SDS011;31265;49.680;8.608;2023-06-14T12:31:41;2.15;;;1.08;;
45540;SDS011;31265;49.680;8.608;2023-06-14T12:34:09;2.35;;;0.93;;
45540;SDS011;31265;49.680;8.608;2023-06-14T12:36:38;3.28;;;1.80;;
45540;SDS011;31265;49.680;8.608;2023-06-14T12:39:13;1.27;;;0.80;;
45540;SDS011;31265;49.680;8.608;2023-06-14T12:41:41;3.03;;;1.30;;
45540;SDS011;31265;49.680;8.608;2023-06-14T12:44:10;1.63;;;0.85;;
45540;SDS011;31265;49.680;8.608;2023-06-14T12:46:38;2.45;;;1.30;;
45540;SDS011;31265;49.680;8.608;2023-06-14T12:49:09;2.17;;;1.27;;
45540;SDS011;31265;49.680;8.608;2023-06-14T12:51:38;2.42;;;1.00;;
45540;SDS011;31265;49.680;8.608;2023-06-14T12:54:08;2.53;;;0.90;;
45540;SDS011;31265;49.680;8.608;2023-06-14T12:56:38;7.40;;;1.10;;
45540;SDS011;31265;49.680;8.608;2023-06-14T12:59:08;3.10;;;1.70;;
45540;SDS011;31265;49.680;8.608;2023-06-14T13:01:37;2.13;;;1.13;;
45540;SDS011;31265;49.680;8.608;2023-06-14T13:06:34;3.10;;;1.50;;
45540;SDS011;31265;49.680;8.608;2023-06-14T13:09:03;7.90;;;1.27;;
45540;SDS011;31265;49.680;8.608;2023-06-14T13:11:32;1.67;;;0.85;;
45540;SDS011;31265;49.680;8.608;2023-06-14T13:14:01;2.63;;;1.10;;
45540;SDS011;31265;49.680;8.608;2023-06-14T13:16:50;2.90;;;1.23;;
45540;SDS011;31265;49.680;8.608;2023-06-14T13:19:18;1.80;;;0.83;;
45540;SDS011;31265;49.680;8.608;2023-06-14T13:21:47;1.70;;;0.93;;
45540;SDS011;31265;49.680;8.608;2023-06-14T13:24:16;2.65;;;0.90;;
45540;SDS011;31265;49.680;8.608;2023-06-14T13:26:44;3.35;;;1.02;;
45540;SDS011;31265;49.680;8.608;2023-06-14T13:29:14;6.85;;;1.77;;
45540;SDS011;31265;49.680;8.608;2023-06-14T13:31:42;4.78;;;1.20;;
45540;SDS011;31265;49.680;8.608;2023-06-14T13:34:10;1.92;;;1.10;;
45540;SDS011;31265;49.680;8.608;2023-06-14T13:36:38;2.72;;;1.00;;
45540;SDS011;31265;49.680;8.608;2023-06-14T13:39:07;2.73;;;1.20;;
45540;SDS011;31265;49.680;8.608;2023-06-14T13:41:35;2.67;;;1.42;;
45540;SDS011;31265;49.680;8.608;2023-06-14T13:44:04;2.22;;;1.10;;
45540;SDS011;31265;49.680;8.608;2023-06-14T13:46:34;2.35;;;0.80;;
45540;SDS011;31265;49.680;8.608;2023-06-14T13:49:02;1.67;;;1.10;;
45540;SDS011;31265;49.680;8.608;2023-06-14T13:54:02;3.15;;;1.40;;
45540;SDS011;31265;49.680;8.608;2023-06-14T13:56:30;2.05;;;0.90;;
45540;SDS011;31265;49.680;8.608;2023-06-14T13:58:59;1.88;;;1.27;;
45540;SDS011;31265;49.680;8.608;2023-06-14T14:01:29;1.98;;;1.08;;
45540;SDS011;31265;49.680;8.608;2023-06-14T14:03:59;1.73;;;0.90;;
45540;SDS011;31265;49.680;8.608;2023-06-14T14:06:27;2.80;;;1.02;;
45540;SDS011;31265;49.680;8.608;2023-06-14T14:08:56;2.95;;;0.98;;
45540;SDS011;31265;49.680;8.608;2023-06-14T14:11:25;3.10;;;1.13;;
45540;SDS011;31265;49.680;8.608;2023-06-14T14:16:25;2.63;;;1.10;;
45540;SDS011;31265;49.680;8.608;2023-06-14T14:18:54;5.53;;;1.33;;
45540;SDS011;31265;49.680;8.608;2023-06-14T14:21:24;1.87;;;0.90;;
45540;SDS011;31265;49.680;8.608;2023-06-14T14:23:52;3.25;;;1.30;;
45540;SDS011;31265;49.680;8.608;2023-06-14T14:26:20;2.85;;;1.08;;
45540;SDS011;31265;49.680;8.608;2023-06-14T14:28:48;3.85;;;1.15;;
45540;SDS011;31265;49.680;8.608;2023-06-14T14:31:17;2.55;;;1.20;;
45540;SDS011;31265;49.680;8.608;2023-06-14T14:33:46;6.13;;;1.20;;
45540;SDS011;31265;49.680;8.608;2023-06-14T14:36:14;3.75;;;1.40;;
45540;SDS011;31265;49.680;8.608;2023-06-14T14:38:44;2.00;;;1.00;;
45540;SDS011;31265;49.680;8.608;2023-06-14T14:41:13;3.78;;;1.50;;
45540;SDS011;31265;49.680;8.608;2023-06-14T14:43:42;4.15;;;1.58;;
45540;SDS011;31265;49.680;8.608;2023-06-14T14:46:10;2.13;;;0.95;;
45540;SDS011;31265;49.680;8.608;2023-06-14T14:48:39;3.13;;;1.42;;
45540;SDS011;31265;49.680;8.608;2023-06-14T14:51:07;2.08;;;1.17;;
45540;SDS011;31265;49.680;8.608;2023-06-14T14:53:35;2.10;;;1.03;;
45540;SDS011;31265;49.680;8.608;2023-06-14T14:56:05;4.13;;;1.27;;
45540;SDS011;31265;49.680;8.608;2023-06-14T14:58:36;3.17;;;1.33;;
45540;SDS011;31265;49.680;8.608;2023-06-14T15:01:04;4.88;;;1.83;;
45540;SDS011;31265;49.680;8.608;2023-06-14T15:03:33;1.98;;;1.05;;
45540;SDS011;31265;49.680;8.608;2023-06-14T15:06:22;2.25;;;1.40;;
45540;SDS011;31265;49.680;8.608;2023-06-14T15:08:50;9.57;;;1.25;;
45540;SDS011;31265;49.680;8.608;2023-06-14T15:11:20;2.65;;;1.02;;
45540;SDS011;31265;49.680;8.608;2023-06-14T15:13:48;1.60;;;0.90;;
45540;SDS011;31265;49.680;8.608;2023-06-14T15:16:18;2.22;;;1.10;;
45540;SDS011;31265;49.680;8.608;2023-06-14T15:18:47;2.58;;;1.13;;
45540;SDS011;31265;49.680;8.608;2023-06-14T15:21:16;2.58;;;1.33;;
45540;SDS011;31265;49.680;8.608;2023-06-14T15:23:46;2.70;;;1.02;;
45540;SDS011;31265;49.680;8.608;2023-06-14T15:26:14;1.95;;;1.10;;
45540;SDS011;31265;49.680;8.608;2023-06-14T15:28:44;1.58;;;0.88;;
45540;SDS011;31265;49.680;8.608;2023-06-14T15:31:13;2.50;;;1.30;;
45540;SDS011;31265;49.680;8.608;2023-06-14T15:33:42;6.33;;;1.03;;
45540;SDS011;31265;49.680;8.608;2023-06-14T15:36:10;2.00;;;1.08;;
45540;SDS011;31265;49.680;8.608;2023-06-14T15:38:39;4.87;;;1.33;;
45540;SDS011;31265;49.680;8.608;2023-06-14T15:41:07;2.33;;;1.13;;
45540;SDS011;31265;49.680;8.608;2023-06-14T15:43:35;1.98;;;1.02;;